sensor_id;sensor_type;location;lat;lon;timestamp;P1;durP1;ratioP1;P2;durP2;ratioP2
4652;SDS011;9900;48.738;9.306;2023-04-15T00:02:22;6.33;;;3.13;;
4652;SDS011;9900;48.738;9.306;2023-04-15T00:04:50;6.20;;;3.10;;
4652;SDS011;9900;48.738;9.306;2023-04-15T00:07:19;6.10;;;3.57;;
4652;SDS011;9900;48.738;9.306;2023-04-15T00:09:49;10.40;;;3.63;;
4652;SDS011;9900;48.738;9.306;2023-04-15T00:12:21;6.00;;;3.60;;
4652;SDS011;9900;48.738;9.306;2023-04-15T00:14:49;12.90;;;3.70;;
4652;SDS011;9900;48.738;9.306;2023-04-15T00:17:18;9.20;;;3.73;;
4652;SDS011;9900;48.738;9.306;2023-04-15T00:19:47;5.10;;;3.40;;
4652;SDS011;9900;48.738;9.306;2023-04-15T00:22:16;10.10;;;3.97;;
4652;SDS011;9900;48.738;9.306;2023-04-15T00:24:44;9.00;;;4.20;;
4652;SDS011;9900;48.738;9.306;2023-04-15T00:27:14;5.83;;;3.10;;
4652;SDS011;9900;48.738;9.306;2023-04-15T00:29:43;7.63;;;3.37;;
4652;SDS011;9900;48.738;9.306;2023-04-15T00:32:12;6.70;;;3.23;;
4652;SDS011;9900;48.738;9.306;2023-04-15T00:34:40;8.47;;;3.80;;
4652;SDS011;9900;48.738;9.306;2023-04-15T00:37:09;5.93;;;3.83;;
4652;SDS011;9900;48.738;9.306;2023-04-15T00:39:38;6.77;;;3.23;;
4652;SDS011;9900;48.738;9.306;2023-04-15T00:42:07;9.33;;;3.67;;
4652;SDS011;9900;48.738;9.306;2023-04-15T00:44:38;12.03;;;3.83;;
4652;SDS011;9900;48.738;9.306;2023-04-15T00:47:07;22.83;;;4.07;;
4652;SDS011;9900;48.738;9.306;2023-04-15T00:49:36;5.80;;;3.30;;
4652;SDS011;9900;48.738;9.306;2023-04-15T00:52:04;10.07;;;4.30;;
4652;SDS011;9900;48.738;9.306;2023-04-15T00:54:33;8.50;;;3.70;;
4652;SDS011;9900;48.738;9.306;2023-04-15T00:57:04;5.97;;;3.33;;
4652;SDS011;9900;48.738;9.306;2023-04-15T00:59:33;12.60;;;5.00;;
4652;SDS011;9900;48.738;9.306;2023-04-15T01:02:03;6.90;;;4.27;;
4652;SDS011;9900;48.738;9.306;2023-04-15T01:04:32;5.90;;;4.07;;
4652;SDS011;9900;48.738;9.306;2023-04-15T01:07:00;8.33;;;4.20;;
4652;SDS011;9900;48.738;9.306;2023-04-15T01:09:29;9.63;;;3.77;;
4652;SDS011;9900;48.738;9.306;2023-04-15T01:11:58;7.33;;;4.10;;
4652;SDS011;9900;48.738;9.306;2023-04-15T01:14:27;11.60;;;4.40;;
4652;SDS011;9900;48.738;9.306;2023-04-15T01:16:56;12.20;;;4.40;;
4652;SDS011;9900;48.738;9.306;2023-04-15T01:19:26;7.23;;;3.60;;
4652;SDS011;9900;48.738;9.306;2023-04-15T01:21:55;6.80;;;4.37;;
4652;SDS011;9900;48.738;9.306;2023-04-15T01:24:23;10.37;;;4.17;;
4652;SDS011;9900;48.738;9.306;2023-04-15T01:26:55;10.27;;;4.00;;
4652;SDS011;9900;48.738;9.306;2023-04-15T01:29:24;7.13;;;3.60;;
4652;SDS011;9900;48.738;9.306;2023-04-15T01:31:54;8.10;;;3.70;;
4652;SDS011;9900;48.738;9.306;2023-04-15T01:34:23;11.73;;;3.80;;
4652;SDS011;9900;48.738;9.306;2023-04-15T01:36:52;5.00;;;3.60;;
4652;SDS011;9900;48.738;9.306;2023-04-15T01:39:21;8.20;;;4.03;;
4652;SDS011;9900;48.738;9.306;2023-04-15T01:41:49;6.67;;;4.00;;
4652;SDS011;9900;48.738;9.306;2023-04-15T01:44:19;7.67;;;3.60;;
4652;SDS011;9900;48.738;9.306;2023-04-15T01:46:48;7.63;;;3.50;;
4652;SDS011;9900;48.738;9.306;2023-04-15T01:49:17;15.13;;;4.00;;
4652;SDS011;9900;48.738;9.306;2023-04-15T01:51:46;16.10;;;4.30;;
4652;SDS011;9900;48.738;9.306;2023-04-15T01:54:14;11.13;;;3.90;;
4652;SDS011;9900;48.738;9.306;2023-04-15T01:56:43;12.63;;;3.93;;
4652;SDS011;9900;48.738;9.306;2023-04-15T01:59:12;8.07;;;4.17;;
4652;SDS011;9900;48.738;9.306;2023-04-15T02:01:42;5.33;;;3.60;;
4652;SDS011;9900;48.738;9.306;2023-04-15T02:04:11;9.07;;;3.73;;
4652;SDS011;9900;48.738;9.306;2023-04-15T02:06:42;6.13;;;3.60;;
4652;SDS011;9900;48.738;9.306;2023-04-15T02:09:11;10.47;;;4.73;;
4652;SDS011;9900;48.738;9.306;2023-04-15T02:11:40;7.13;;;3.90;;
4652;SDS011;9900;48.738;9.306;2023-04-15T02:14:08;9.17;;;3.87;;
4652;SDS011;9900;48.738;9.306;2023-04-15T02:16:37;6.80;;;4.27;;
4652;SDS011;9900;48.738;9.306;2023-04-15T02:19:07;9.60;;;4.50;;
4652;SDS011;9900;48.738;9.306;2023-04-15T02:21:36;11.17;;;3.83;;
4652;SDS011;9900;48.738;9.306;2023-04-15T02:24:05;9.43;;;3.30;;
4652;SDS011;9900;48.738;9.306;2023-04-15T02:26:33;6.33;;;3.70;;
4652;SDS011;9900;48.738;9.306;2023-04-15T02:29:02;4.40;;;3.27;;
4652;SDS011;9900;48.738;9.306;2023-04-15T02:31:31;10.90;;;4.50;;
4652;SDS011;9900;48.738;9.306;2023-04-15T02:34:03;7.33;;;3.33;;
4652;SDS011;9900;48.738;9.306;2023-04-15T02:36:33;5.77;;;4.30;;
4652;SDS011;9900;48.738;9.306;2023-04-15T02:39:01;6.87;;;3.53;;
4652;SDS011;9900;48.738;9.306;2023-04-15T02:41:30;9.03;;;3.40;;
4652;SDS011;9900;48.738;9.306;2023-04-15T02:44:00;13.00;;;3.80;;
4652;SDS011;9900;48.738;9.306;2023-04-15T02:46:29;8.43;;;3.80;;
4652;SDS011;9900;48.738;9.306;2023-04-15T02:48:58;5.20;;;3.40;;
4652;SDS011;9900;48.738;9.306;2023-04-15T02:51:29;9.77;;;3.73;;
4652;SDS011;9900;48.738;9.306;2023-04-15T02:53:59;6.53;;;3.93;;
4652;SDS011;9900;48.738;9.306;2023-04-15T02:56:28;8.67;;;3.67;;
4652;SDS011;9900;48.738;9.306;2023-04-15T02:58:57;8.73;;;3.47;;
4652;SDS011;9900;48.738;9.306;2023-04-15T03:01:26;5.20;;;3.77;;
4652;SDS011;9900;48.738;9.306;2023-04-15T03:03:55;7.33;;;3.73;;
4652;SDS011;9900;48.738;9.306;2023-04-15T03:06:23;7.17;;;3.30;;
4652;SDS011;9900;48.738;9.306;2023-04-15T03:08:52;8.80;;;3.30;;
4652;SDS011;9900;48.738;9.306;2023-04-15T03:11:22;6.23;;;3.00;;
4652;SDS011;9900;48.738;9.306;2023-04-15T03:13:50;7.03;;;3.60;;
4652;SDS011;9900;48.738;9.306;2023-04-15T03:16:19;5.97;;;3.20;;
4652;SDS011;9900;48.738;9.306;2023-04-15T03:18:48;4.93;;;3.40;;
4652;SDS011;9900;48.738;9.306;2023-04-15T03:21:17;10.13;;;3.17;;
4652;SDS011;9900;48.738;9.306;2023-04-15T03:23:47;6.40;;;3.40;;
4652;SDS011;9900;48.738;9.306;2023-04-15T03:26:27;9.33;;;4.60;;
4652;SDS011;9900;48.738;9.306;2023-04-15T03:28:56;9.37;;;3.53;;
4652;SDS011;9900;48.738;9.306;2023-04-15T03:31:25;6.17;;;3.43;;
4652;SDS011;9900;48.738;9.306;2023-04-15T03:33:54;9.40;;;3.70;;
4652;SDS011;9900;48.738;9.306;2023-04-15T03:36:22;8.13;;;3.77;;
4652;SDS011;9900;48.738;9.306;2023-04-15T03:38:51;7.73;;;4.37;;
4652;SDS011;9900;48.738;9.306;2023-04-15T03:41:20;6.03;;;3.67;;
4652;SDS011;9900;48.738;9.306;2023-04-15T03:43:50;14.10;;;4.40;;
4652;SDS011;9900;48.738;9.306;2023-04-15T03:46:18;4.10;;;2.97;;
4652;SDS011;9900;48.738;9.306;2023-04-15T03:48:47;7.23;;;3.70;;
4652;SDS011;9900;48.738;9.306;2023-04-15T03:51:16;8.17;;;3.80;;
4652;SDS011;9900;48.738;9.306;2023-04-15T03:53:45;6.27;;;3.30;;
4652;SDS011;9900;48.738;9.306;2023-04-15T03:56:13;4.73;;;3.23;;
4652;SDS011;9900;48.738;9.306;2023-04-15T03:58:42;9.07;;;3.70;;
4652;SDS011;9900;48.738;9.306;2023-04-15T04:01:12;7.90;;;3.80;;
4652;SDS011;9900;48.738;9.306;2023-04-15T04:03:41;6.27;;;3.83;;
4652;SDS011;9900;48.738;9.306;2023-04-15T04:06:10;8.27;;;3.80;;
4652;SDS011;9900;48.738;9.306;2023-04-15T04:08:38;10.33;;;3.47;;
4652;SDS011;9900;48.738;9.306;2023-04-15T04:11:07;7.20;;;3.77;;
4652;SDS011;9900;48.738;9.306;2023-04-15T04:13:36;7.17;;;3.53;;
4652;SDS011;9900;48.738;9.306;2023-04-15T04:16:05;6.37;;;3.30;;
4652;SDS011;9900;48.738;9.306;2023-04-15T04:18:35;7.87;;;3.90;;
4652;SDS011;9900;48.738;9.306;2023-04-15T04:21:04;11.57;;;3.73;;
4652;SDS011;9900;48.738;9.306;2023-04-15T04:23:33;16.30;;;3.80;;
4652;SDS011;9900;48.738;9.306;2023-04-15T04:26:02;8.60;;;3.67;;
4652;SDS011;9900;48.738;9.306;2023-04-15T04:28:30;5.60;;;3.50;;
4652;SDS011;9900;48.738;9.306;2023-04-15T04:30:59;6.70;;;3.70;;
4652;SDS011;9900;48.738;9.306;2023-04-15T04:33:28;4.40;;;3.30;;
4652;SDS011;9900;48.738;9.306;2023-04-15T04:35:58;6.20;;;3.70;;
4652;SDS011;9900;48.738;9.306;2023-04-15T04:38:27;6.93;;;4.00;;
4652;SDS011;9900;48.738;9.306;2023-04-15T04:40:55;5.60;;;3.30;;
4652;SDS011;9900;48.738;9.306;2023-04-15T04:43:24;7.43;;;3.87;;
4652;SDS011;9900;48.738;9.306;2023-04-15T04:45:53;7.37;;;3.17;;
4652;SDS011;9900;48.738;9.306;2023-04-15T04:48:22;11.97;;;3.70;;
4652;SDS011;9900;48.738;9.306;2023-04-15T04:50:50;10.73;;;3.77;;
4652;SDS011;9900;48.738;9.306;2023-04-15T04:53:20;5.23;;;3.50;;
4652;SDS011;9900;48.738;9.306;2023-04-15T04:55:49;6.33;;;3.90;;
4652;SDS011;9900;48.738;9.306;2023-04-15T04:58:18;8.70;;;3.90;;
4652;SDS011;9900;48.738;9.306;2023-04-15T05:00:47;10.63;;;3.67;;
4652;SDS011;9900;48.738;9.306;2023-04-15T05:03:16;7.23;;;3.80;;
4652;SDS011;9900;48.738;9.306;2023-04-15T05:05:45;4.83;;;3.40;;
4652;SDS011;9900;48.738;9.306;2023-04-15T05:08:15;10.93;;;4.50;;
4652;SDS011;9900;48.738;9.306;2023-04-15T05:10:45;4.63;;;3.60;;
4652;SDS011;9900;48.738;9.306;2023-04-15T05:13:14;8.00;;;4.00;;
4652;SDS011;9900;48.738;9.306;2023-04-15T05:15:42;11.57;;;3.50;;
4652;SDS011;9900;48.738;9.306;2023-04-15T05:18:11;8.10;;;3.53;;
4652;SDS011;9900;48.738;9.306;2023-04-15T05:20:40;9.70;;;3.90;;
4652;SDS011;9900;48.738;9.306;2023-04-15T05:23:08;12.00;;;3.70;;
4652;SDS011;9900;48.738;9.306;2023-04-15T05:25:37;7.10;;;3.90;;
4652;SDS011;9900;48.738;9.306;2023-04-15T05:28:07;6.53;;;3.43;;
4652;SDS011;9900;48.738;9.306;2023-04-15T05:30:36;9.93;;;4.23;;
4652;SDS011;9900;48.738;9.306;2023-04-15T05:33:04;6.07;;;3.77;;
4652;SDS011;9900;48.738;9.306;2023-04-15T05:35:33;9.80;;;4.60;;
4652;SDS011;9900;48.738;9.306;2023-04-15T05:38:02;6.67;;;3.60;;
4652;SDS011;9900;48.738;9.306;2023-04-15T05:40:30;11.20;;;4.17;;
4652;SDS011;9900;48.738;9.306;2023-04-15T05:42:59;9.50;;;3.50;;
4652;SDS011;9900;48.738;9.306;2023-04-15T05:45:29;7.33;;;4.43;;
4652;SDS011;9900;48.738;9.306;2023-04-15T05:47:58;10.60;;;3.97;;
4652;SDS011;9900;48.738;9.306;2023-04-15T05:50:27;12.93;;;4.00;;
4652;SDS011;9900;48.738;9.306;2023-04-15T05:52:56;5.30;;;3.40;;
4652;SDS011;9900;48.738;9.306;2023-04-15T05:55:24;7.20;;;3.53;;
4652;SDS011;9900;48.738;9.306;2023-04-15T05:57:53;8.50;;;4.10;;
4652;SDS011;9900;48.738;9.306;2023-04-15T06:00:22;11.07;;;3.70;;
4652;SDS011;9900;48.738;9.306;2023-04-15T06:02:52;10.37;;;4.10;;
4652;SDS011;9900;48.738;9.306;2023-04-15T06:05:21;7.90;;;3.85;;
4652;SDS011;9900;48.738;9.306;2023-04-15T06:07:50;6.87;;;3.30;;
4652;SDS011;9900;48.738;9.306;2023-04-15T06:10:18;9.43;;;3.97;;
4652;SDS011;9900;48.738;9.306;2023-04-15T06:12:47;5.47;;;3.70;;
4652;SDS011;9900;48.738;9.306;2023-04-15T06:15:16;6.97;;;3.80;;
4652;SDS011;9900;48.738;9.306;2023-04-15T06:17:45;3.53;;;2.97;;
4652;SDS011;9900;48.738;9.306;2023-04-15T06:20:15;7.70;;;3.30;;
4652;SDS011;9900;48.738;9.306;2023-04-15T06:22:43;7.90;;;4.00;;
4652;SDS011;9900;48.738;9.306;2023-04-15T06:25:12;8.40;;;3.33;;
4652;SDS011;9900;48.738;9.306;2023-04-15T06:27:41;9.07;;;3.53;;
4652;SDS011;9900;48.738;9.306;2023-04-15T06:30:10;7.63;;;3.40;;
4652;SDS011;9900;48.738;9.306;2023-04-15T06:32:41;6.23;;;3.20;;
4652;SDS011;9900;48.738;9.306;2023-04-15T06:35:09;4.73;;;3.50;;
4652;SDS011;9900;48.738;9.306;2023-04-15T06:37:41;4.60;;;3.37;;
4652;SDS011;9900;48.738;9.306;2023-04-15T06:40:10;4.40;;;2.90;;
4652;SDS011;9900;48.738;9.306;2023-04-15T06:42:39;5.10;;;3.37;;
4652;SDS011;9900;48.738;9.306;2023-04-15T06:45:08;5.27;;;4.10;;
4652;SDS011;9900;48.738;9.306;2023-04-15T06:47:37;3.63;;;2.90;;
4652;SDS011;9900;48.738;9.306;2023-04-15T06:50:07;6.70;;;3.40;;
4652;SDS011;9900;48.738;9.306;2023-04-15T06:52:37;6.90;;;4.20;;
4652;SDS011;9900;48.738;9.306;2023-04-15T06:55:07;5.73;;;3.50;;
4652;SDS011;9900;48.738;9.306;2023-04-15T06:57:37;5.63;;;3.10;;
4652;SDS011;9900;48.738;9.306;2023-04-15T07:00:06;4.13;;;3.30;;
4652;SDS011;9900;48.738;9.306;2023-04-15T07:02:37;8.13;;;3.50;;
4652;SDS011;9900;48.738;9.306;2023-04-15T07:05:06;4.27;;;3.23;;
4652;SDS011;9900;48.738;9.306;2023-04-15T07:07:34;7.50;;;4.00;;
4652;SDS011;9900;48.738;9.306;2023-04-15T07:10:04;5.40;;;3.53;;
4652;SDS011;9900;48.738;9.306;2023-04-15T07:12:35;13.43;;;4.00;;
4652;SDS011;9900;48.738;9.306;2023-04-15T07:15:05;10.20;;;4.20;;
4652;SDS011;9900;48.738;9.306;2023-04-15T07:17:34;10.03;;;3.23;;
4652;SDS011;9900;48.738;9.306;2023-04-15T07:20:03;6.33;;;3.20;;
4652;SDS011;9900;48.738;9.306;2023-04-15T07:22:32;14.43;;;3.97;;
4652;SDS011;9900;48.738;9.306;2023-04-15T07:25:01;6.13;;;3.67;;
4652;SDS011;9900;48.738;9.306;2023-04-15T07:27:29;7.00;;;3.57;;
4652;SDS011;9900;48.738;9.306;2023-04-15T07:30:00;4.33;;;3.07;;
4652;SDS011;9900;48.738;9.306;2023-04-15T07:32:28;5.20;;;3.30;;
4652;SDS011;9900;48.738;9.306;2023-04-15T07:34:57;7.53;;;3.40;;
4652;SDS011;9900;48.738;9.306;2023-04-15T07:37:26;5.67;;;3.50;;
4652;SDS011;9900;48.738;9.306;2023-04-15T07:39:55;4.63;;;3.10;;
4652;SDS011;9900;48.738;9.306;2023-04-15T07:42:24;7.30;;;3.97;;
4652;SDS011;9900;48.738;9.306;2023-04-15T07:44:53;7.83;;;3.97;;
4652;SDS011;9900;48.738;9.306;2023-04-15T07:47:23;5.50;;;3.70;;
4652;SDS011;9900;48.738;9.306;2023-04-15T07:49:52;4.37;;;3.10;;
4652;SDS011;9900;48.738;9.306;2023-04-15T07:52:21;6.97;;;4.07;;
4652;SDS011;9900;48.738;9.306;2023-04-15T07:54:49;6.03;;;3.80;;
4652;SDS011;9900;48.738;9.306;2023-04-15T07:57:18;7.20;;;3.87;;
4652;SDS011;9900;48.738;9.306;2023-04-15T07:59:47;9.50;;;3.50;;
4652;SDS011;9900;48.738;9.306;2023-04-15T08:02:15;7.47;;;3.30;;
4652;SDS011;9900;48.738;9.306;2023-04-15T08:04:46;5.90;;;3.40;;
4652;SDS011;9900;48.738;9.306;2023-04-15T08:07:15;7.60;;;4.33;;
4652;SDS011;9900;48.738;9.306;2023-04-15T08:09:44;9.13;;;3.63;;
4652;SDS011;9900;48.738;9.306;2023-04-15T08:12:13;11.03;;;4.10;;
4652;SDS011;9900;48.738;9.306;2023-04-15T08:14:42;4.87;;;3.50;;
4652;SDS011;9900;48.738;9.306;2023-04-15T08:17:10;7.60;;;3.80;;
4652;SDS011;9900;48.738;9.306;2023-04-15T08:19:39;4.90;;;3.70;;
4652;SDS011;9900;48.738;9.306;2023-04-15T08:22:10;5.43;;;3.43;;
4652;SDS011;9900;48.738;9.306;2023-04-15T08:24:44;5.93;;;3.20;;
4652;SDS011;9900;48.738;9.306;2023-04-15T08:27:13;4.03;;;3.40;;
4652;SDS011;9900;48.738;9.306;2023-04-15T08:29:42;5.20;;;3.40;;
4652;SDS011;9900;48.738;9.306;2023-04-15T08:32:11;5.83;;;3.10;;
4652;SDS011;9900;48.738;9.306;2023-04-15T08:34:41;7.50;;;3.80;;
4652;SDS011;9900;48.738;9.306;2023-04-15T08:37:11;5.53;;;3.00;;
4652;SDS011;9900;48.738;9.306;2023-04-15T08:39:39;9.03;;;3.10;;
4652;SDS011;9900;48.738;9.306;2023-04-15T08:42:10;5.20;;;3.30;;
4652;SDS011;9900;48.738;9.306;2023-04-15T08:44:39;6.03;;;3.17;;
4652;SDS011;9900;48.738;9.306;2023-04-15T08:47:08;9.20;;;4.00;;
4652;SDS011;9900;48.738;9.306;2023-04-15T08:49:40;4.93;;;3.60;;
4652;SDS011;9900;48.738;9.306;2023-04-15T08:52:11;11.77;;;3.80;;
4652;SDS011;9900;48.738;9.306;2023-04-15T08:54:40;4.10;;;3.07;;
4652;SDS011;9900;48.738;9.306;2023-04-15T08:57:09;5.23;;;3.33;;
4652;SDS011;9900;48.738;9.306;2023-04-15T08:59:38;9.10;;;3.67;;
4652;SDS011;9900;48.738;9.306;2023-04-15T09:02:06;6.27;;;3.07;;
4652;SDS011;9900;48.738;9.306;2023-04-15T09:04:35;3.30;;;2.77;;
4652;SDS011;9900;48.738;9.306;2023-04-15T09:07:04;8.00;;;3.20;;
4652;SDS011;9900;48.738;9.306;2023-04-15T09:09:34;10.67;;;3.17;;
4652;SDS011;9900;48.738;9.306;2023-04-15T09:12:03;6.10;;;3.37;;
4652;SDS011;9900;48.738;9.306;2023-04-15T09:14:32;4.10;;;2.93;;
4652;SDS011;9900;48.738;9.306;2023-04-15T09:17:01;6.60;;;2.97;;
4652;SDS011;9900;48.738;9.306;2023-04-15T09:19:31;5.37;;;3.30;;
4652;SDS011;9900;48.738;9.306;2023-04-15T09:22:00;7.60;;;3.50;;
4652;SDS011;9900;48.738;9.306;2023-04-15T09:24:35;4.60;;;2.63;;
4652;SDS011;9900;48.738;9.306;2023-04-15T09:27:06;5.33;;;2.83;;
4652;SDS011;9900;48.738;9.306;2023-04-15T09:29:35;3.73;;;2.30;;
4652;SDS011;9900;48.738;9.306;2023-04-15T09:32:11;3.70;;;2.03;;
4652;SDS011;9900;48.738;9.306;2023-04-15T09:34:41;7.37;;;2.87;;
4652;SDS011;9900;48.738;9.306;2023-04-15T09:37:10;5.73;;;2.27;;
4652;SDS011;9900;48.738;9.306;2023-04-15T09:39:56;3.50;;;2.30;;
4652;SDS011;9900;48.738;9.306;2023-04-15T09:42:26;3.23;;;2.03;;
4652;SDS011;9900;48.738;9.306;2023-04-15T09:44:55;5.83;;;2.30;;
4652;SDS011;9900;48.738;9.306;2023-04-15T09:47:27;6.87;;;3.03;;
4652;SDS011;9900;48.738;9.306;2023-04-15T09:49:56;4.77;;;2.33;;
4652;SDS011;9900;48.738;9.306;2023-04-15T09:52:26;4.53;;;2.30;;
4652;SDS011;9900;48.738;9.306;2023-04-15T09:54:57;7.77;;;2.70;;
4652;SDS011;9900;48.738;9.306;2023-04-15T09:57:32;5.00;;;2.70;;
4652;SDS011;9900;48.738;9.306;2023-04-15T10:00:02;3.90;;;2.60;;
4652;SDS011;9900;48.738;9.306;2023-04-15T10:02:31;4.53;;;2.80;;
4652;SDS011;9900;48.738;9.306;2023-04-15T10:05:03;6.50;;;3.13;;
4652;SDS011;9900;48.738;9.306;2023-04-15T10:07:33;5.57;;;3.10;;
4652;SDS011;9900;48.738;9.306;2023-04-15T10:10:04;5.33;;;2.70;;
4652;SDS011;9900;48.738;9.306;2023-04-15T10:12:33;3.40;;;2.40;;
4652;SDS011;9900;48.738;9.306;2023-04-15T10:15:05;7.17;;;2.60;;
4652;SDS011;9900;48.738;9.306;2023-04-15T10:17:34;4.30;;;2.50;;
4652;SDS011;9900;48.738;9.306;2023-04-15T10:20:03;4.03;;;2.40;;
4652;SDS011;9900;48.738;9.306;2023-04-15T10:22:33;9.23;;;2.60;;
4652;SDS011;9900;48.738;9.306;2023-04-15T10:25:04;5.80;;;2.70;;
4652;SDS011;9900;48.738;9.306;2023-04-15T10:27:34;4.07;;;2.30;;
4652;SDS011;9900;48.738;9.306;2023-04-15T10:30:03;10.30;;;2.00;;
4652;SDS011;9900;48.738;9.306;2023-04-15T10:32:33;5.50;;;2.03;;
4652;SDS011;9900;48.738;9.306;2023-04-15T10:35:03;5.63;;;1.93;;
4652;SDS011;9900;48.738;9.306;2023-04-15T10:37:33;5.67;;;1.90;;
4652;SDS011;9900;48.738;9.306;2023-04-15T10:42:53;6.87;;;2.00;;
4652;SDS011;9900;48.738;9.306;2023-04-15T10:45:24;3.30;;;1.90;;
4652;SDS011;9900;48.738;9.306;2023-04-15T10:47:54;5.97;;;2.00;;
4652;SDS011;9900;48.738;9.306;2023-04-15T10:50:24;3.90;;;2.00;;
4652;SDS011;9900;48.738;9.306;2023-04-15T10:52:54;6.07;;;2.60;;
4652;SDS011;9900;48.738;9.306;2023-04-15T10:55:25;5.23;;;2.03;;
4652;SDS011;9900;48.738;9.306;2023-04-15T10:57:57;7.93;;;2.20;;
4652;SDS011;9900;48.738;9.306;2023-04-15T11:00:28;3.53;;;2.07;;
4652;SDS011;9900;48.738;9.306;2023-04-15T11:02:57;4.77;;;2.47;;
4652;SDS011;9900;48.738;9.306;2023-04-15T11:08:17;6.90;;;2.20;;
4652;SDS011;9900;48.738;9.306;2023-04-15T11:10:51;3.73;;;2.07;;
4652;SDS011;9900;48.738;9.306;2023-04-15T11:13:24;4.97;;;2.40;;
4652;SDS011;9900;48.738;9.306;2023-04-15T11:15:55;3.90;;;2.20;;
4652;SDS011;9900;48.738;9.306;2023-04-15T11:18:29;5.30;;;2.13;;
4652;SDS011;9900;48.738;9.306;2023-04-15T11:21:00;4.23;;;2.30;;
4652;SDS011;9900;48.738;9.306;2023-04-15T11:23:30;6.53;;;1.90;;
4652;SDS011;9900;48.738;9.306;2023-04-15T11:26:02;5.27;;;2.00;;
4652;SDS011;9900;48.738;9.306;2023-04-15T11:28:35;4.53;;;1.80;;
4652;SDS011;9900;48.738;9.306;2023-04-15T11:31:06;6.50;;;2.60;;
4652;SDS011;9900;48.738;9.306;2023-04-15T11:33:37;9.63;;;2.57;;
4652;SDS011;9900;48.738;9.306;2023-04-15T11:36:12;3.30;;;2.70;;
4652;SDS011;9900;48.738;9.306;2023-04-15T11:38:41;5.43;;;2.20;;
4652;SDS011;9900;48.738;9.306;2023-04-15T11:41:11;6.63;;;2.97;;
4652;SDS011;9900;48.738;9.306;2023-04-15T11:43:40;8.50;;;2.60;;
4652;SDS011;9900;48.738;9.306;2023-04-15T11:46:09;6.73;;;2.57;;
4652;SDS011;9900;48.738;9.306;2023-04-15T11:48:40;9.50;;;3.10;;
4652;SDS011;9900;48.738;9.306;2023-04-15T11:51:11;4.20;;;3.10;;
4652;SDS011;9900;48.738;9.306;2023-04-15T11:53:42;5.60;;;3.40;;
4652;SDS011;9900;48.738;9.306;2023-04-15T11:56:17;5.20;;;3.80;;
4652;SDS011;9900;48.738;9.306;2023-04-15T11:58:47;7.90;;;3.50;;
4652;SDS011;9900;48.738;9.306;2023-04-15T12:01:20;5.70;;;2.90;;
4652;SDS011;9900;48.738;9.306;2023-04-15T12:03:49;4.37;;;2.47;;
4652;SDS011;9900;48.738;9.306;2023-04-15T12:06:19;8.00;;;4.27;;
4652;SDS011;9900;48.738;9.306;2023-04-15T12:08:55;6.00;;;3.30;;
4652;SDS011;9900;48.738;9.306;2023-04-15T12:11:44;5.83;;;3.50;;
4652;SDS011;9900;48.738;9.306;2023-04-15T12:14:19;14.60;;;3.70;;
4652;SDS011;9900;48.738;9.306;2023-04-15T12:16:49;7.13;;;4.50;;
4652;SDS011;9900;48.738;9.306;2023-04-15T12:19:23;8.47;;;4.57;;
4652;SDS011;9900;48.738;9.306;2023-04-15T12:21:56;8.53;;;3.27;;
4652;SDS011;9900;48.738;9.306;2023-04-15T12:24:27;6.40;;;3.60;;
4652;SDS011;9900;48.738;9.306;2023-04-15T12:27:01;7.27;;;3.60;;
4652;SDS011;9900;48.738;9.306;2023-04-15T12:29:33;5.97;;;3.20;;
4652;SDS011;9900;48.738;9.306;2023-04-15T12:32:04;3.00;;;2.70;;
4652;SDS011;9900;48.738;9.306;2023-04-15T12:34:34;7.23;;;2.83;;
4652;SDS011;9900;48.738;9.306;2023-04-15T12:37:04;4.57;;;2.20;;
4652;SDS011;9900;48.738;9.306;2023-04-15T12:39:34;5.57;;;3.43;;
4652;SDS011;9900;48.738;9.306;2023-04-15T12:42:04;8.83;;;3.17;;
4652;SDS011;9900;48.738;9.306;2023-04-15T12:44:33;5.00;;;3.50;;
4652;SDS011;9900;48.738;9.306;2023-04-15T12:47:02;8.03;;;3.67;;
4652;SDS011;9900;48.738;9.306;2023-04-15T12:49:31;5.93;;;3.53;;
4652;SDS011;9900;48.738;9.306;2023-04-15T12:52:02;7.70;;;3.77;;
4652;SDS011;9900;48.738;9.306;2023-04-15T12:54:31;4.37;;;3.67;;
4652;SDS011;9900;48.738;9.306;2023-04-15T12:57:01;4.30;;;2.80;;
4652;SDS011;9900;48.738;9.306;2023-04-15T12:59:34;4.40;;;3.10;;
4652;SDS011;9900;48.738;9.306;2023-04-15T13:02:03;6.80;;;3.20;;
4652;SDS011;9900;48.738;9.306;2023-04-15T13:04:32;6.20;;;3.90;;
4652;SDS011;9900;48.738;9.306;2023-04-15T13:07:01;7.03;;;3.23;;
4652;SDS011;9900;48.738;9.306;2023-04-15T13:09:30;3.07;;;2.80;;
4652;SDS011;9900;48.738;9.306;2023-04-15T13:11:59;4.10;;;2.67;;
4652;SDS011;9900;48.738;9.306;2023-04-15T13:14:29;8.60;;;3.33;;
4652;SDS011;9900;48.738;9.306;2023-04-15T13:16:59;3.00;;;2.70;;
4652;SDS011;9900;48.738;9.306;2023-04-15T13:19:30;3.93;;;3.17;;
4652;SDS011;9900;48.738;9.306;2023-04-15T13:21:59;3.30;;;2.70;;
4652;SDS011;9900;48.738;9.306;2023-04-15T13:24:28;4.80;;;2.70;;
4652;SDS011;9900;48.738;9.306;2023-04-15T13:26:58;3.53;;;2.77;;
4652;SDS011;9900;48.738;9.306;2023-04-15T13:29:27;6.10;;;3.00;;
4652;SDS011;9900;48.738;9.306;2023-04-15T13:31:55;6.50;;;3.00;;
4652;SDS011;9900;48.738;9.306;2023-04-15T13:34:25;7.13;;;3.20;;
4652;SDS011;9900;48.738;9.306;2023-04-15T13:36:54;3.73;;;2.50;;
4652;SDS011;9900;48.738;9.306;2023-04-15T13:39:23;4.50;;;2.73;;
4652;SDS011;9900;48.738;9.306;2023-04-15T13:41:51;7.37;;;2.30;;
4652;SDS011;9900;48.738;9.306;2023-04-15T13:44:20;6.00;;;3.53;;
4652;SDS011;9900;48.738;9.306;2023-04-15T13:46:50;3.80;;;3.40;;
4652;SDS011;9900;48.738;9.306;2023-04-15T13:49:19;10.53;;;3.60;;
4652;SDS011;9900;48.738;9.306;2023-04-15T13:51:50;4.93;;;2.87;;
4652;SDS011;9900;48.738;9.306;2023-04-15T13:54:18;5.50;;;3.50;;
4652;SDS011;9900;48.738;9.306;2023-04-15T13:56:47;6.60;;;3.00;;
4652;SDS011;9900;48.738;9.306;2023-04-15T13:59:16;5.87;;;3.60;;
4652;SDS011;9900;48.738;9.306;2023-04-15T14:01:45;4.70;;;2.83;;
4652;SDS011;9900;48.738;9.306;2023-04-15T14:04:14;6.37;;;2.23;;
4652;SDS011;9900;48.738;9.306;2023-04-15T14:06:43;4.77;;;1.77;;
4652;SDS011;9900;48.738;9.306;2023-04-15T14:09:13;1.73;;;1.20;;
4652;SDS011;9900;48.738;9.306;2023-04-15T14:11:41;2.40;;;1.67;;
4652;SDS011;9900;48.738;9.306;2023-04-15T14:14:10;2.97;;;2.03;;
4652;SDS011;9900;48.738;9.306;2023-04-15T14:16:42;2.50;;;1.23;;
4652;SDS011;9900;48.738;9.306;2023-04-15T14:19:11;1.30;;;1.10;;
4652;SDS011;9900;48.738;9.306;2023-04-15T14:21:39;2.13;;;1.53;;
4652;SDS011;9900;48.738;9.306;2023-04-15T14:24:08;3.83;;;1.10;;
4652;SDS011;9900;48.738;9.306;2023-04-15T14:26:38;2.07;;;0.80;;
4652;SDS011;9900;48.738;9.306;2023-04-15T14:29:07;2.73;;;1.10;;
4652;SDS011;9900;48.738;9.306;2023-04-15T14:31:36;2.90;;;0.90;;
4652;SDS011;9900;48.738;9.306;2023-04-15T14:34:07;1.17;;;1.00;;
4652;SDS011;9900;48.738;9.306;2023-04-15T14:36:36;1.40;;;1.30;;
4652;SDS011;9900;48.738;9.306;2023-04-15T14:39:06;4.40;;;1.53;;
4652;SDS011;9900;48.738;9.306;2023-04-15T14:41:35;1.00;;;0.90;;
4652;SDS011;9900;48.738;9.306;2023-04-15T14:44:06;2.00;;;1.50;;
4652;SDS011;9900;48.738;9.306;2023-04-15T14:46:37;2.67;;;1.10;;
4652;SDS011;9900;48.738;9.306;2023-04-15T14:49:06;2.50;;;1.00;;
4652;SDS011;9900;48.738;9.306;2023-04-15T14:51:35;1.13;;;1.03;;
4652;SDS011;9900;48.738;9.306;2023-04-15T14:54:06;2.13;;;1.37;;
4652;SDS011;9900;48.738;9.306;2023-04-15T14:56:35;1.10;;;1.00;;
4652;SDS011;9900;48.738;9.306;2023-04-15T14:59:05;2.60;;;1.40;;
4652;SDS011;9900;48.738;9.306;2023-04-15T15:01:34;4.97;;;1.53;;
4652;SDS011;9900;48.738;9.306;2023-04-15T15:04:03;1.23;;;1.10;;
4652;SDS011;9900;48.738;9.306;2023-04-15T15:06:32;1.97;;;1.20;;
4652;SDS011;9900;48.738;9.306;2023-04-15T15:09:00;1.37;;;1.20;;
4652;SDS011;9900;48.738;9.306;2023-04-15T15:11:30;1.80;;;1.20;;
4652;SDS011;9900;48.738;9.306;2023-04-15T15:13:58;1.73;;;1.03;;
4652;SDS011;9900;48.738;9.306;2023-04-15T15:16:28;2.67;;;1.27;;
4652;SDS011;9900;48.738;9.306;2023-04-15T15:18:57;1.93;;;1.30;;
4652;SDS011;9900;48.738;9.306;2023-04-15T15:21:26;2.23;;;1.13;;
4652;SDS011;9900;48.738;9.306;2023-04-15T15:23:55;1.97;;;1.27;;
4652;SDS011;9900;48.738;9.306;2023-04-15T15:26:23;4.70;;;1.00;;
4652;SDS011;9900;48.738;9.306;2023-04-15T15:28:54;1.73;;;1.27;;
4652;SDS011;9900;48.738;9.306;2023-04-15T15:31:23;1.47;;;1.20;;
4652;SDS011;9900;48.738;9.306;2023-04-15T15:33:53;5.40;;;1.40;;